sensor_id;sensor_type;location;lat;lon;timestamp;P1;durP1;ratioP1;P2;durP2;ratioP2
60354;SDS011;46198;51.464;-0.066;2023-06-14T00:00:35;7.28;;;2.85;;
60354;SDS011;46198;51.464;-0.066;2023-06-14T00:03:05;7.68;;;3.15;;
60354;SDS011;46198;51.464;-0.066;2023-06-14T00:05:35;7.82;;;3.03;;
60354;SDS011;46198;51.464;-0.066;2023-06-14T00:08:07;9.50;;;3.30;;
60354;SDS011;46198;51.464;-0.066;2023-06-14T00:10:36;7.05;;;3.47;;
60354;SDS011;46198;51.464;-0.066;2023-06-14T00:13:05;6.82;;;3.25;;
60354;SDS011;46198;51.464;-0.066;2023-06-14T00:15:33;7.13;;;2.72;;
60354;SDS011;46198;51.464;-0.066;2023-06-14T00:18:03;9.00;;;3.35;;
60354;SDS011;46198;51.464;-0.066;2023-06-14T00:20:32;6.70;;;3.17;;
60354;SDS011;46198;51.464;-0.066;2023-06-14T00:23:01;9.25;;;3.35;;
60354;SDS011;46198;51.464;-0.066;2023-06-14T00:25:29;8.65;;;3.38;;
60354;SDS011;46198;51.464;-0.066;2023-06-14T00:27:58;7.63;;;3.38;;
60354;SDS011;46198;51.464;-0.066;2023-06-14T00:30:26;6.93;;;3.30;;
60354;SDS011;46198;51.464;-0.066;2023-06-14T00:32:57;5.68;;;3.30;;
60354;SDS011;46198;51.464;-0.066;2023-06-14T00:35:27;8.60;;;2.92;;
60354;SDS011;46198;51.464;-0.066;2023-06-14T00:37:56;7.55;;;2.70;;
60354;SDS011;46198;51.464;-0.066;2023-06-14T00:40:24;9.32;;;2.30;;
60354;SDS011;46198;51.464;-0.066;2023-06-14T00:42:52;4.38;;;2.10;;
60354;SDS011;46198;51.464;-0.066;2023-06-14T00:45:20;5.57;;;2.33;;
60354;SDS011;46198;51.464;-0.066;2023-06-14T00:47:49;4.32;;;2.42;;
60354;SDS011;46198;51.464;-0.066;2023-06-14T00:50:22;4.00;;;2.50;;
60354;SDS011;46198;51.464;-0.066;2023-06-14T00:52:52;4.28;;;2.17;;
60354;SDS011;46198;51.464;-0.066;2023-06-14T00:55:20;5.38;;;2.55;;
60354;SDS011;46198;51.464;-0.066;2023-06-14T00:57:49;6.47;;;2.80;;
60354;SDS011;46198;51.464;-0.066;2023-06-14T01:00:17;4.82;;;2.50;;
60354;SDS011;46198;51.464;-0.066;2023-06-14T01:02:46;5.05;;;2.33;;
60354;SDS011;46198;51.464;-0.066;2023-06-14T01:05:14;4.97;;;2.17;;
60354;SDS011;46198;51.464;-0.066;2023-06-14T01:07:46;7.22;;;2.88;;
60354;SDS011;46198;51.464;-0.066;2023-06-14T01:10:31;4.85;;;1.98;;
60354;SDS011;46198;51.464;-0.066;2023-06-14T01:13:05;6.10;;;2.63;;
60354;SDS011;46198;51.464;-0.066;2023-06-14T01:15:38;4.75;;;2.60;;
60354;SDS011;46198;51.464;-0.066;2023-06-14T01:18:08;4.53;;;2.28;;
60354;SDS011;46198;51.464;-0.066;2023-06-14T01:20:44;5.80;;;2.60;;
60354;SDS011;46198;51.464;-0.066;2023-06-14T01:23:15;4.90;;;2.95;;
60354;SDS011;46198;51.464;-0.066;2023-06-14T01:25:43;7.97;;;3.47;;
60354;SDS011;46198;51.464;-0.066;2023-06-14T01:28:11;7.65;;;3.65;;
60354;SDS011;46198;51.464;-0.066;2023-06-14T01:30:41;7.85;;;3.72;;
60354;SDS011;46198;51.464;-0.066;2023-06-14T01:33:14;6.30;;;2.92;;
60354;SDS011;46198;51.464;-0.066;2023-06-14T01:35:43;9.30;;;2.67;;
60354;SDS011;46198;51.464;-0.066;2023-06-14T01:38:14;5.95;;;2.60;;
60354;SDS011;46198;51.464;-0.066;2023-06-14T01:40:43;7.72;;;2.67;;
60354;SDS011;46198;51.464;-0.066;2023-06-14T01:43:12;10.25;;;3.42;;
60354;SDS011;46198;51.464;-0.066;2023-06-14T01:45:41;8.02;;;2.80;;
60354;SDS011;46198;51.464;-0.066;2023-06-14T01:48:10;9.32;;;3.50;;
60354;SDS011;46198;51.464;-0.066;2023-06-14T01:50:39;6.32;;;2.50;;
60354;SDS011;46198;51.464;-0.066;2023-06-14T01:53:08;5.22;;;2.72;;
60354;SDS011;46198;51.464;-0.066;2023-06-14T01:55:39;6.47;;;2.80;;
60354;SDS011;46198;51.464;-0.066;2023-06-14T01:58:10;6.32;;;2.78;;
60354;SDS011;46198;51.464;-0.066;2023-06-14T02:00:38;9.05;;;3.15;;
60354;SDS011;46198;51.464;-0.066;2023-06-14T02:03:07;5.47;;;2.63;;
60354;SDS011;46198;51.464;-0.066;2023-06-14T02:05:35;7.30;;;2.70;;
60354;SDS011;46198;51.464;-0.066;2023-06-14T02:08:05;7.75;;;2.72;;
60354;SDS011;46198;51.464;-0.066;2023-06-14T02:10:33;6.55;;;3.03;;
60354;SDS011;46198;51.464;-0.066;2023-06-14T02:13:04;11.35;;;3.20;;
60354;SDS011;46198;51.464;-0.066;2023-06-14T02:15:32;8.57;;;3.00;;
60354;SDS011;46198;51.464;-0.066;2023-06-14T02:18:02;4.35;;;2.40;;
60354;SDS011;46198;51.464;-0.066;2023-06-14T02:20:32;5.68;;;2.70;;
60354;SDS011;46198;51.464;-0.066;2023-06-14T02:23:01;7.95;;;2.90;;
60354;SDS011;46198;51.464;-0.066;2023-06-14T02:25:30;8.48;;;3.00;;
60354;SDS011;46198;51.464;-0.066;2023-06-14T02:27:58;5.82;;;2.75;;
60354;SDS011;46198;51.464;-0.066;2023-06-14T02:30:28;7.10;;;2.75;;
60354;SDS011;46198;51.464;-0.066;2023-06-14T02:32:59;7.75;;;2.75;;
60354;SDS011;46198;51.464;-0.066;2023-06-14T02:35:27;11.15;;;3.30;;
60354;SDS011;46198;51.464;-0.066;2023-06-14T02:37:55;8.02;;;2.85;;
60354;SDS011;46198;51.464;-0.066;2023-06-14T02:40:23;4.68;;;2.90;;
60354;SDS011;46198;51.464;-0.066;2023-06-14T02:42:51;8.20;;;3.03;;
60354;SDS011;46198;51.464;-0.066;2023-06-14T02:45:20;7.88;;;3.15;;
60354;SDS011;46198;51.464;-0.066;2023-06-14T02:47:50;8.38;;;3.10;;
60354;SDS011;46198;51.464;-0.066;2023-06-14T02:50:19;7.72;;;3.00;;
60354;SDS011;46198;51.464;-0.066;2023-06-14T02:52:48;6.22;;;3.25;;
60354;SDS011;46198;51.464;-0.066;2023-06-14T02:55:16;4.55;;;2.97;;
60354;SDS011;46198;51.464;-0.066;2023-06-14T02:57:44;7.55;;;3.15;;
60354;SDS011;46198;51.464;-0.066;2023-06-14T03:00:15;7.05;;;3.20;;
60354;SDS011;46198;51.464;-0.066;2023-06-14T03:02:46;6.60;;;3.17;;
60354;SDS011;46198;51.464;-0.066;2023-06-14T03:05:15;7.03;;;3.67;;
60354;SDS011;46198;51.464;-0.066;2023-06-14T03:07:48;7.22;;;3.22;;
60354;SDS011;46198;51.464;-0.066;2023-06-14T03:10:17;8.25;;;4.03;;
60354;SDS011;46198;51.464;-0.066;2023-06-14T03:12:45;8.68;;;3.80;;
60354;SDS011;46198;51.464;-0.066;2023-06-14T03:15:15;8.40;;;3.85;;
60354;SDS011;46198;51.464;-0.066;2023-06-14T03:17:46;8.60;;;4.05;;
60354;SDS011;46198;51.464;-0.066;2023-06-14T03:20:17;9.63;;;4.10;;
60354;SDS011;46198;51.464;-0.066;2023-06-14T03:22:46;7.72;;;3.13;;
60354;SDS011;46198;51.464;-0.066;2023-06-14T03:25:15;10.68;;;4.50;;
60354;SDS011;46198;51.464;-0.066;2023-06-14T03:27:45;10.73;;;3.85;;
60354;SDS011;46198;51.464;-0.066;2023-06-14T03:30:14;12.63;;;4.45;;
60354;SDS011;46198;51.464;-0.066;2023-06-14T03:32:45;10.55;;;3.90;;
60354;SDS011;46198;51.464;-0.066;2023-06-14T03:35:14;7.88;;;4.13;;
60354;SDS011;46198;51.464;-0.066;2023-06-14T03:37:47;8.70;;;3.95;;
60354;SDS011;46198;51.464;-0.066;2023-06-14T03:40:17;11.20;;;3.97;;
60354;SDS011;46198;51.464;-0.066;2023-06-14T03:42:49;11.43;;;3.78;;
60354;SDS011;46198;51.464;-0.066;2023-06-14T03:45:18;5.38;;;3.75;;
60354;SDS011;46198;51.464;-0.066;2023-06-14T03:47:47;8.35;;;3.80;;
60354;SDS011;46198;51.464;-0.066;2023-06-14T03:50:16;11.20;;;3.38;;
60354;SDS011;46198;51.464;-0.066;2023-06-14T03:52:48;7.93;;;3.90;;
60354;SDS011;46198;51.464;-0.066;2023-06-14T03:55:18;6.50;;;3.85;;
60354;SDS011;46198;51.464;-0.066;2023-06-14T04:00:17;9.80;;;3.88;;
60354;SDS011;46198;51.464;-0.066;2023-06-14T04:02:46;6.05;;;4.20;;
60354;SDS011;46198;51.464;-0.066;2023-06-14T04:05:14;8.15;;;4.13;;
60354;SDS011;46198;51.464;-0.066;2023-06-14T04:07:49;8.50;;;4.00;;
60354;SDS011;46198;51.464;-0.066;2023-06-14T04:10:17;9.18;;;4.13;;
60354;SDS011;46198;51.464;-0.066;2023-06-14T04:12:47;7.82;;;4.18;;
60354;SDS011;46198;51.464;-0.066;2023-06-14T04:15:16;7.03;;;4.22;;
60354;SDS011;46198;51.464;-0.066;2023-06-14T04:17:50;7.93;;;3.55;;
60354;SDS011;46198;51.464;-0.066;2023-06-14T04:20:22;7.90;;;3.60;;
60354;SDS011;46198;51.464;-0.066;2023-06-14T04:22:52;5.90;;;3.53;;
60354;SDS011;46198;51.464;-0.066;2023-06-14T04:25:20;6.22;;;3.88;;
60354;SDS011;46198;51.464;-0.066;2023-06-14T04:27:52;11.07;;;4.30;;
60354;SDS011;46198;51.464;-0.066;2023-06-14T04:30:21;9.77;;;4.80;;
60354;SDS011;46198;51.464;-0.066;2023-06-14T04:32:54;8.63;;;3.78;;
60354;SDS011;46198;51.464;-0.066;2023-06-14T04:35:23;8.95;;;4.20;;
60354;SDS011;46198;51.464;-0.066;2023-06-14T04:37:54;8.20;;;3.72;;
60354;SDS011;46198;51.464;-0.066;2023-06-14T04:40:24;10.48;;;4.32;;
60354;SDS011;46198;51.464;-0.066;2023-06-14T04:42:52;13.25;;;4.07;;
60354;SDS011;46198;51.464;-0.066;2023-06-14T04:45:21;7.30;;;3.95;;
60354;SDS011;46198;51.464;-0.066;2023-06-14T04:47:50;7.78;;;3.83;;
60354;SDS011;46198;51.464;-0.066;2023-06-14T04:50:22;9.85;;;4.10;;
60354;SDS011;46198;51.464;-0.066;2023-06-14T04:52:50;7.80;;;4.68;;
60354;SDS011;46198;51.464;-0.066;2023-06-14T04:55:21;8.23;;;4.05;;
60354;SDS011;46198;51.464;-0.066;2023-06-14T04:57:50;11.43;;;4.03;;
60354;SDS011;46198;51.464;-0.066;2023-06-14T05:00:20;7.15;;;4.22;;
60354;SDS011;46198;51.464;-0.066;2023-06-14T05:02:50;14.70;;;5.28;;
60354;SDS011;46198;51.464;-0.066;2023-06-14T05:05:20;9.55;;;4.13;;
60354;SDS011;46198;51.464;-0.066;2023-06-14T05:07:48;15.30;;;5.55;;
60354;SDS011;46198;51.464;-0.066;2023-06-14T05:10:17;12.63;;;4.85;;
60354;SDS011;46198;51.464;-0.066;2023-06-14T05:12:47;19.27;;;6.35;;
60354;SDS011;46198;51.464;-0.066;2023-06-14T05:15:17;7.15;;;3.72;;
60354;SDS011;46198;51.464;-0.066;2023-06-14T05:17:46;9.75;;;4.13;;
60354;SDS011;46198;51.464;-0.066;2023-06-14T05:20:20;7.65;;;3.67;;
60354;SDS011;46198;51.464;-0.066;2023-06-14T05:22:49;11.93;;;4.18;;
60354;SDS011;46198;51.464;-0.066;2023-06-14T05:25:18;12.63;;;4.25;;
60354;SDS011;46198;51.464;-0.066;2023-06-14T05:27:48;11.95;;;4.40;;
60354;SDS011;46198;51.464;-0.066;2023-06-14T05:30:17;10.17;;;4.27;;
60354;SDS011;46198;51.464;-0.066;2023-06-14T05:32:45;12.82;;;4.20;;
60354;SDS011;46198;51.464;-0.066;2023-06-14T05:35:13;12.45;;;4.20;;
60354;SDS011;46198;51.464;-0.066;2023-06-14T05:37:42;14.05;;;4.70;;
60354;SDS011;46198;51.464;-0.066;2023-06-14T05:40:10;12.18;;;4.07;;
60354;SDS011;46198;51.464;-0.066;2023-06-14T05:42:39;8.07;;;4.05;;
60354;SDS011;46198;51.464;-0.066;2023-06-14T05:45:08;14.38;;;4.30;;
60354;SDS011;46198;51.464;-0.066;2023-06-14T05:47:37;9.40;;;4.45;;
60354;SDS011;46198;51.464;-0.066;2023-06-14T05:50:05;11.00;;;4.93;;
60354;SDS011;46198;51.464;-0.066;2023-06-14T05:52:34;7.93;;;3.92;;
60354;SDS011;46198;51.464;-0.066;2023-06-14T05:55:03;9.88;;;4.22;;
60354;SDS011;46198;51.464;-0.066;2023-06-14T05:57:32;11.80;;;4.57;;
60354;SDS011;46198;51.464;-0.066;2023-06-14T06:00:00;10.57;;;4.55;;
60354;SDS011;46198;51.464;-0.066;2023-06-14T06:02:39;8.43;;;4.18;;
60354;SDS011;46198;51.464;-0.066;2023-06-14T06:05:07;6.72;;;3.95;;
60354;SDS011;46198;51.464;-0.066;2023-06-14T06:07:36;8.85;;;4.45;;
60354;SDS011;46198;51.464;-0.066;2023-06-14T06:10:05;9.43;;;4.82;;
60354;SDS011;46198;51.464;-0.066;2023-06-14T06:12:33;12.02;;;4.72;;
60354;SDS011;46198;51.464;-0.066;2023-06-14T06:15:02;10.80;;;4.70;;
60354;SDS011;46198;51.464;-0.066;2023-06-14T06:17:30;11.50;;;4.57;;
60354;SDS011;46198;51.464;-0.066;2023-06-14T06:20:20;9.02;;;3.95;;
60354;SDS011;46198;51.464;-0.066;2023-06-14T06:22:54;11.52;;;4.97;;
60354;SDS011;46198;51.464;-0.066;2023-06-14T06:25:22;10.40;;;5.43;;
60354;SDS011;46198;51.464;-0.066;2023-06-14T06:27:53;12.25;;;6.03;;
60354;SDS011;46198;51.464;-0.066;2023-06-14T06:30:21;11.98;;;5.90;;
60354;SDS011;46198;51.464;-0.066;2023-06-14T06:32:49;10.07;;;4.70;;
60354;SDS011;46198;51.464;-0.066;2023-06-14T06:35:19;9.40;;;4.38;;
60354;SDS011;46198;51.464;-0.066;2023-06-14T06:37:47;10.43;;;5.18;;
60354;SDS011;46198;51.464;-0.066;2023-06-14T06:40:15;14.95;;;5.80;;
60354;SDS011;46198;51.464;-0.066;2023-06-14T06:42:47;11.70;;;4.68;;
60354;SDS011;46198;51.464;-0.066;2023-06-14T06:47:48;12.65;;;4.13;;
60354;SDS011;46198;51.464;-0.066;2023-06-14T06:50:17;13.52;;;5.10;;
60354;SDS011;46198;51.464;-0.066;2023-06-14T06:52:48;9.00;;;4.70;;
60354;SDS011;46198;51.464;-0.066;2023-06-14T06:55:16;15.55;;;4.40;;
60354;SDS011;46198;51.464;-0.066;2023-06-14T06:57:45;10.02;;;4.22;;
60354;SDS011;46198;51.464;-0.066;2023-06-14T07:00:13;10.38;;;4.68;;
60354;SDS011;46198;51.464;-0.066;2023-06-14T07:02:42;9.93;;;4.97;;
60354;SDS011;46198;51.464;-0.066;2023-06-14T07:05:11;11.02;;;5.60;;
60354;SDS011;46198;51.464;-0.066;2023-06-14T07:07:40;13.13;;;4.50;;
60354;SDS011;46198;51.464;-0.066;2023-06-14T07:10:09;9.98;;;4.30;;
60354;SDS011;46198;51.464;-0.066;2023-06-14T07:12:37;8.45;;;4.10;;
60354;SDS011;46198;51.464;-0.066;2023-06-14T07:15:06;12.10;;;5.07;;
60354;SDS011;46198;51.464;-0.066;2023-06-14T07:17:35;13.25;;;4.63;;
60354;SDS011;46198;51.464;-0.066;2023-06-14T07:20:04;11.10;;;4.53;;
60354;SDS011;46198;51.464;-0.066;2023-06-14T07:22:38;19.38;;;5.10;;
60354;SDS011;46198;51.464;-0.066;2023-06-14T07:25:10;11.00;;;4.00;;
60354;SDS011;46198;51.464;-0.066;2023-06-14T07:27:41;13.23;;;4.72;;
60354;SDS011;46198;51.464;-0.066;2023-06-14T07:30:10;12.70;;;5.03;;
60354;SDS011;46198;51.464;-0.066;2023-06-14T07:32:39;8.95;;;4.78;;
60354;SDS011;46198;51.464;-0.066;2023-06-14T07:35:11;11.32;;;5.25;;
60354;SDS011;46198;51.464;-0.066;2023-06-14T07:37:40;14.20;;;5.20;;
60354;SDS011;46198;51.464;-0.066;2023-06-14T07:40:11;12.52;;;5.43;;
60354;SDS011;46198;51.464;-0.066;2023-06-14T07:42:40;13.18;;;4.93;;
60354;SDS011;46198;51.464;-0.066;2023-06-14T07:45:08;12.68;;;4.88;;
60354;SDS011;46198;51.464;-0.066;2023-06-14T07:47:37;12.43;;;5.05;;
60354;SDS011;46198;51.464;-0.066;2023-06-14T07:50:06;9.00;;;6.00;;
60354;SDS011;46198;51.464;-0.066;2023-06-14T07:52:36;13.23;;;4.72;;
60354;SDS011;46198;51.464;-0.066;2023-06-14T07:55:04;14.32;;;4.78;;
60354;SDS011;46198;51.464;-0.066;2023-06-14T07:57:34;16.15;;;5.22;;
60354;SDS011;46198;51.464;-0.066;2023-06-14T08:00:02;10.48;;;4.90;;
60354;SDS011;46198;51.464;-0.066;2023-06-14T08:02:39;12.20;;;5.47;;
60354;SDS011;46198;51.464;-0.066;2023-06-14T08:05:09;12.57;;;5.25;;
60354;SDS011;46198;51.464;-0.066;2023-06-14T08:07:37;11.02;;;5.75;;
60354;SDS011;46198;51.464;-0.066;2023-06-14T08:10:06;12.38;;;5.22;;
60354;SDS011;46198;51.464;-0.066;2023-06-14T08:12:36;14.00;;;6.03;;
60354;SDS011;46198;51.464;-0.066;2023-06-14T08:15:05;12.57;;;4.72;;
60354;SDS011;46198;51.464;-0.066;2023-06-14T08:17:40;11.32;;;4.88;;
60354;SDS011;46198;51.464;-0.066;2023-06-14T08:20:10;17.42;;;6.22;;
60354;SDS011;46198;51.464;-0.066;2023-06-14T08:22:40;12.60;;;6.25;;
60354;SDS011;46198;51.464;-0.066;2023-06-14T08:25:09;10.32;;;5.25;;
60354;SDS011;46198;51.464;-0.066;2023-06-14T08:27:40;10.27;;;4.90;;
60354;SDS011;46198;51.464;-0.066;2023-06-14T08:30:08;13.05;;;5.70;;
60354;SDS011;46198;51.464;-0.066;2023-06-14T08:32:37;17.02;;;5.80;;
60354;SDS011;46198;51.464;-0.066;2023-06-14T08:35:06;10.93;;;5.63;;
60354;SDS011;46198;51.464;-0.066;2023-06-14T08:37:37;16.90;;;5.78;;
60354;SDS011;46198;51.464;-0.066;2023-06-14T08:40:07;11.73;;;4.88;;
60354;SDS011;46198;51.464;-0.066;2023-06-14T08:42:47;12.68;;;5.43;;
60354;SDS011;46198;51.464;-0.066;2023-06-14T08:45:18;12.38;;;6.13;;
60354;SDS011;46198;51.464;-0.066;2023-06-14T08:47:46;9.82;;;5.15;;
60354;SDS011;46198;51.464;-0.066;2023-06-14T08:50:21;10.07;;;5.10;;
60354;SDS011;46198;51.464;-0.066;2023-06-14T08:52:55;12.77;;;5.47;;
60354;SDS011;46198;51.464;-0.066;2023-06-14T08:55:27;13.70;;;5.65;;
60354;SDS011;46198;51.464;-0.066;2023-06-14T08:58:00;9.48;;;5.13;;
60354;SDS011;46198;51.464;-0.066;2023-06-14T09:00:30;12.00;;;5.38;;
60354;SDS011;46198;51.464;-0.066;2023-06-14T09:03:01;9.55;;;5.45;;
60354;SDS011;46198;51.464;-0.066;2023-06-14T09:05:30;12.73;;;5.28;;
60354;SDS011;46198;51.464;-0.066;2023-06-14T09:07:58;14.52;;;5.50;;
60354;SDS011;46198;51.464;-0.066;2023-06-14T09:10:32;10.88;;;5.47;;
60354;SDS011;46198;51.464;-0.066;2023-06-14T09:13:02;11.98;;;5.45;;
60354;SDS011;46198;51.464;-0.066;2023-06-14T09:15:31;11.10;;;4.45;;
60354;SDS011;46198;51.464;-0.066;2023-06-14T09:18:00;11.93;;;5.47;;
60354;SDS011;46198;51.464;-0.066;2023-06-14T09:20:29;14.63;;;5.88;;
60354;SDS011;46198;51.464;-0.066;2023-06-14T09:23:00;11.48;;;5.65;;
60354;SDS011;46198;51.464;-0.066;2023-06-14T09:25:28;10.73;;;5.53;;
60354;SDS011;46198;51.464;-0.066;2023-06-14T09:28:07;11.52;;;5.35;;
60354;SDS011;46198;51.464;-0.066;2023-06-14T09:30:36;12.10;;;5.72;;
60354;SDS011;46198;51.464;-0.066;2023-06-14T09:33:05;9.52;;;5.93;;
60354;SDS011;46198;51.464;-0.066;2023-06-14T09:35:33;16.10;;;6.53;;
60354;SDS011;46198;51.464;-0.066;2023-06-14T09:38:02;12.50;;;6.20;;
60354;SDS011;46198;51.464;-0.066;2023-06-14T09:40:33;11.98;;;5.93;;
60354;SDS011;46198;51.464;-0.066;2023-06-14T09:43:02;9.75;;;5.57;;
60354;SDS011;46198;51.464;-0.066;2023-06-14T09:45:34;8.68;;;5.60;;
60354;SDS011;46198;51.464;-0.066;2023-06-14T09:48:03;11.38;;;5.90;;
60354;SDS011;46198;51.464;-0.066;2023-06-14T09:50:34;11.95;;;5.97;;
60354;SDS011;46198;51.464;-0.066;2023-06-14T09:53:03;12.68;;;5.35;;
60354;SDS011;46198;51.464;-0.066;2023-06-14T09:55:35;12.93;;;6.32;;
60354;SDS011;46198;51.464;-0.066;2023-06-14T09:58:05;10.02;;;5.53;;
60354;SDS011;46198;51.464;-0.066;2023-06-14T10:00:36;13.20;;;6.28;;
60354;SDS011;46198;51.464;-0.066;2023-06-14T10:03:11;12.73;;;5.80;;
60354;SDS011;46198;51.464;-0.066;2023-06-14T10:05:41;11.60;;;6.97;;
60354;SDS011;46198;51.464;-0.066;2023-06-14T10:08:13;12.10;;;5.97;;
60354;SDS011;46198;51.464;-0.066;2023-06-14T10:10:44;12.63;;;6.28;;
60354;SDS011;46198;51.464;-0.066;2023-06-14T10:13:13;12.18;;;5.45;;
60354;SDS011;46198;51.464;-0.066;2023-06-14T10:15:45;14.25;;;6.05;;
60354;SDS011;46198;51.464;-0.066;2023-06-14T10:18:29;11.13;;;6.55;;
60354;SDS011;46198;51.464;-0.066;2023-06-14T10:21:03;7.75;;;5.78;;
60354;SDS011;46198;51.464;-0.066;2023-06-14T10:23:36;14.93;;;6.78;;
60354;SDS011;46198;51.464;-0.066;2023-06-14T10:26:13;14.88;;;6.47;;
60354;SDS011;46198;51.464;-0.066;2023-06-14T10:28:54;13.07;;;7.15;;
60354;SDS011;46198;51.464;-0.066;2023-06-14T10:31:32;13.35;;;6.88;;
60354;SDS011;46198;51.464;-0.066;2023-06-14T10:34:07;10.73;;;6.03;;
60354;SDS011;46198;51.464;-0.066;2023-06-14T10:36:36;12.43;;;6.53;;
60354;SDS011;46198;51.464;-0.066;2023-06-14T10:39:06;14.30;;;6.43;;
60354;SDS011;46198;51.464;-0.066;2023-06-14T10:41:35;16.73;;;6.88;;
60354;SDS011;46198;51.464;-0.066;2023-06-14T10:44:17;9.37;;;6.30;;
60354;SDS011;46198;51.464;-0.066;2023-06-14T10:47:00;15.93;;;7.38;;
60354;SDS011;46198;51.464;-0.066;2023-06-14T10:49:39;15.55;;;6.80;;
60354;SDS011;46198;51.464;-0.066;2023-06-14T10:52:10;13.50;;;6.38;;
60354;SDS011;46198;51.464;-0.066;2023-06-14T10:54:59;14.90;;;6.80;;
60354;SDS011;46198;51.464;-0.066;2023-06-14T10:57:33;11.20;;;6.45;;
60354;SDS011;46198;51.464;-0.066;2023-06-14T11:00:16;9.93;;;6.07;;
60354;SDS011;46198;51.464;-0.066;2023-06-14T11:02:59;9.88;;;6.13;;
60354;SDS011;46198;51.464;-0.066;2023-06-14T11:05:58;11.52;;;5.57;;
60354;SDS011;46198;51.464;-0.066;2023-06-14T11:08:27;13.70;;;6.60;;
60354;SDS011;46198;51.464;-0.066;2023-06-14T11:11:08;11.68;;;6.63;;
60354;SDS011;46198;51.464;-0.066;2023-06-14T11:13:37;9.73;;;6.40;;
60354;SDS011;46198;51.464;-0.066;2023-06-14T11:16:10;10.85;;;6.00;;
60354;SDS011;46198;51.464;-0.066;2023-06-14T11:18:41;9.98;;;6.43;;
60354;SDS011;46198;51.464;-0.066;2023-06-14T11:21:15;9.52;;;6.22;;
60354;SDS011;46198;51.464;-0.066;2023-06-14T11:23:48;11.57;;;6.80;;
60354;SDS011;46198;51.464;-0.066;2023-06-14T11:26:23;13.38;;;6.30;;
60354;SDS011;46198;51.464;-0.066;2023-06-14T11:28:57;8.88;;;5.80;;
60354;SDS011;46198;51.464;-0.066;2023-06-14T11:31:26;11.95;;;7.15;;
60354;SDS011;46198;51.464;-0.066;2023-06-14T11:33:57;9.50;;;6.10;;
60354;SDS011;46198;51.464;-0.066;2023-06-14T11:36:27;11.05;;;6.18;;
60354;SDS011;46198;51.464;-0.066;2023-06-14T11:38:57;9.77;;;6.20;;
60354;SDS011;46198;51.464;-0.066;2023-06-14T11:41:32;12.05;;;6.32;;
60354;SDS011;46198;51.464;-0.066;2023-06-14T11:44:01;9.70;;;6.18;;
60354;SDS011;46198;51.464;-0.066;2023-06-14T11:46:30;7.85;;;6.00;;
60354;SDS011;46198;51.464;-0.066;2023-06-14T11:48:59;8.55;;;6.20;;
60354;SDS011;46198;51.464;-0.066;2023-06-14T11:51:30;10.75;;;6.25;;
60354;SDS011;46198;51.464;-0.066;2023-06-14T11:53:59;9.47;;;6.00;;
60354;SDS011;46198;51.464;-0.066;2023-06-14T11:56:27;8.73;;;6.20;;
60354;SDS011;46198;51.464;-0.066;2023-06-14T11:58:55;12.95;;;6.00;;
60354;SDS011;46198;51.464;-0.066;2023-06-14T12:01:24;6.68;;;5.50;;
60354;SDS011;46198;51.464;-0.066;2023-06-14T12:03:53;10.80;;;6.35;;
60354;SDS011;46198;51.464;-0.066;2023-06-14T12:06:27;13.05;;;6.10;;
60354;SDS011;46198;51.464;-0.066;2023-06-14T12:09:02;8.27;;;6.55;;
60354;SDS011;46198;51.464;-0.066;2023-06-14T12:11:33;10.00;;;6.47;;
60354;SDS011;46198;51.464;-0.066;2023-06-14T12:14:03;11.52;;;6.40;;
60354;SDS011;46198;51.464;-0.066;2023-06-14T12:16:34;9.85;;;5.55;;
60354;SDS011;46198;51.464;-0.066;2023-06-14T12:19:08;9.68;;;6.43;;
60354;SDS011;46198;51.464;-0.066;2023-06-14T12:21:39;8.13;;;5.72;;
60354;SDS011;46198;51.464;-0.066;2023-06-14T12:24:08;10.50;;;6.28;;
60354;SDS011;46198;51.464;-0.066;2023-06-14T12:26:39;14.02;;;6.53;;
60354;SDS011;46198;51.464;-0.066;2023-06-14T12:29:09;10.83;;;6.47;;
60354;SDS011;46198;51.464;-0.066;2023-06-14T12:31:39;8.85;;;5.97;;
60354;SDS011;46198;51.464;-0.066;2023-06-14T12:34:08;10.23;;;6.15;;
60354;SDS011;46198;51.464;-0.066;2023-06-14T12:36:38;9.98;;;6.00;;
60354;SDS011;46198;51.464;-0.066;2023-06-14T12:39:11;12.38;;;6.78;;
60354;SDS011;46198;51.464;-0.066;2023-06-14T12:41:39;10.38;;;6.18;;
60354;SDS011;46198;51.464;-0.066;2023-06-14T12:44:09;11.05;;;6.45;;
60354;SDS011;46198;51.464;-0.066;2023-06-14T12:46:37;8.02;;;5.53;;
60354;SDS011;46198;51.464;-0.066;2023-06-14T12:49:07;8.52;;;6.50;;
60354;SDS011;46198;51.464;-0.066;2023-06-14T12:51:36;11.88;;;6.68;;
60354;SDS011;46198;51.464;-0.066;2023-06-14T12:54:06;8.40;;;5.80;;
60354;SDS011;46198;51.464;-0.066;2023-06-14T12:56:34;6.88;;;6.05;;
60354;SDS011;46198;51.464;-0.066;2023-06-14T12:59:03;8.13;;;5.88;;
60354;SDS011;46198;51.464;-0.066;2023-06-14T13:01:31;7.85;;;6.07;;
60354;SDS011;46198;51.464;-0.066;2023-06-14T13:03:59;7.72;;;5.57;;
60354;SDS011;46198;51.464;-0.066;2023-06-14T13:06:27;8.10;;;5.90;;
60354;SDS011;46198;51.464;-0.066;2023-06-14T13:08:57;7.38;;;5.90;;
60354;SDS011;46198;51.464;-0.066;2023-06-14T13:11:27;7.57;;;5.40;;
60354;SDS011;46198;51.464;-0.066;2023-06-14T13:13:55;6.68;;;5.97;;
60354;SDS011;46198;51.464;-0.066;2023-06-14T13:16:23;7.72;;;6.07;;
60354;SDS011;46198;51.464;-0.066;2023-06-14T13:18:52;9.40;;;6.00;;
60354;SDS011;46198;51.464;-0.066;2023-06-14T13:21:21;9.68;;;5.75;;
60354;SDS011;46198;51.464;-0.066;2023-06-14T13:23:49;6.93;;;5.88;;
60354;SDS011;46198;51.464;-0.066;2023-06-14T13:26:18;8.37;;;5.90;;
60354;SDS011;46198;51.464;-0.066;2023-06-14T13:28:48;7.63;;;5.90;;
60354;SDS011;46198;51.464;-0.066;2023-06-14T13:31:16;7.38;;;5.60;;
60354;SDS011;46198;51.464;-0.066;2023-06-14T13:33:44;8.75;;;6.38;;
60354;SDS011;46198;51.464;-0.066;2023-06-14T13:36:12;11.88;;;6.10;;
60354;SDS011;46198;51.464;-0.066;2023-06-14T13:38:40;7.93;;;6.40;;
60354;SDS011;46198;51.464;-0.066;2023-06-14T13:41:09;8.40;;;6.22;;
60354;SDS011;46198;51.464;-0.066;2023-06-14T13:43:37;8.30;;;5.90;;
60354;SDS011;46198;51.464;-0.066;2023-06-14T13:46:06;11.07;;;6.05;;
60354;SDS011;46198;51.464;-0.066;2023-06-14T13:48:35;11.05;;;6.15;;
60354;SDS011;46198;51.464;-0.066;2023-06-14T13:51:03;7.63;;;5.90;;
60354;SDS011;46198;51.464;-0.066;2023-06-14T13:53:31;7.30;;;6.03;;
60354;SDS011;46198;51.464;-0.066;2023-06-14T13:55:59;5.90;;;5.30;;
60354;SDS011;46198;51.464;-0.066;2023-06-14T13:58:27;9.30;;;6.07;;
60354;SDS011;46198;51.464;-0.066;2023-06-14T14:00:56;10.63;;;6.03;;
60354;SDS011;46198;51.464;-0.066;2023-06-14T14:03:27;7.00;;;6.10;;
60354;SDS011;46198;51.464;-0.066;2023-06-14T14:05:55;9.23;;;5.70;;
60354;SDS011;46198;51.464;-0.066;2023-06-14T14:08:24;7.85;;;5.95;;
60354;SDS011;46198;51.464;-0.066;2023-06-14T14:10:52;8.60;;;5.38;;
60354;SDS011;46198;51.464;-0.066;2023-06-14T14:13:20;8.05;;;5.80;;
60354;SDS011;46198;51.464;-0.066;2023-06-14T14:15:49;8.98;;;5.82;;
60354;SDS011;46198;51.464;-0.066;2023-06-14T14:18:17;9.93;;;6.32;;
60354;SDS011;46198;51.464;-0.066;2023-06-14T14:20:49;9.23;;;6.28;;
60354;SDS011;46198;51.464;-0.066;2023-06-14T14:23:17;7.07;;;5.60;;
60354;SDS011;46198;51.464;-0.066;2023-06-14T14:25:46;8.77;;;6.05;;
60354;SDS011;46198;51.464;-0.066;2023-06-14T14:28:15;10.35;;;6.20;;
60354;SDS011;46198;51.464;-0.066;2023-06-14T14:30:46;11.88;;;6.18;;
60354;SDS011;46198;51.464;-0.066;2023-06-14T14:33:14;8.27;;;5.90;;
60354;SDS011;46198;51.464;-0.066;2023-06-14T14:35:44;11.67;;;6.10;;
60354;SDS011;46198;51.464;-0.066;2023-06-14T14:38:14;10.63;;;5.97;;
60354;SDS011;46198;51.464;-0.066;2023-06-14T14:43:11;10.68;;;6.28;;
60354;SDS011;46198;51.464;-0.066;2023-06-14T14:45:39;6.65;;;5.78;;
60354;SDS011;46198;51.464;-0.066;2023-06-14T14:48:07;9.45;;;5.25;;
60354;SDS011;46198;51.464;-0.066;2023-06-14T14:50:36;8.95;;;5.78;;
60354;SDS011;46198;51.464;-0.066;2023-06-14T14:53:04;7.93;;;5.90;;